Time;durP1;ratioP1;P1;durP2;ratioP2;P2;SDS_P1;SDS_P2;PMS_P1;PMS_P2;Temp;Humidity;BMP_temperature;BMP_pressure;BME280_temperature;BME280_humidity;BME280_pressure;Samples;Min_cycle;Max_cycle;Signal;HPM_P1;HPM_P2
2022/07/28 00:02:24;;;;;;;30.20;28.60;;;21.10;57.20;;;;;;4971655;28;20547;-70
2022/07/28 00:04:51;;;;;;;30.80;29.30;;;21.00;57.40;;;;;;4970896;28;21295;-70
2022/07/28 00:07:17;;;;;;;29.23;27.83;;;21.00;57.40;;;;;;4971743;28;20817;-70
2022/07/28 00:09:44;;;;;;;28.33;26.57;;;21.00;57.60;;;;;;4971826;28;20572;-70
2022/07/28 00:12:11;;;;;;;28.97;27.43;;;21.00;57.50;;;;;;4970575;28;20544;-70
2022/07/28 00:14:38;;;;;;;29.40;27.70;;;21.00;57.60;;;;;;4968524;28;20498;-72
2022/07/28 00:17:05;;;;;;;29.80;27.63;;;20.90;58.20;;;;;;4969274;28;20548;-68
2022/07/28 00:19:34;;;;;;;29.80;28.50;;;20.90;58.00;;;;;;4971727;28;20568;-68
2022/07/28 00:22:01;;;;;;;29.63;28.13;;;20.90;57.80;;;;;;4971566;28;20570;-69
2022/07/28 00:24:30;;;;;;;30.20;28.80;;;20.80;57.90;;;;;;4972667;28;21023;-68
2022/07/28 00:26:57;;;;;;;32.70;31.00;;;20.70;58.00;;;;;;4965127;28;20478;-69
2022/07/28 00:29:24;;;;;;;31.30;29.60;;;20.70;58.00;;;;;;4971594;28;20565;-70
2022/07/28 00:31:51;;;;;;;30.90;29.30;;;20.60;58.10;;;;;;4968394;28;20505;-70
2022/07/28 00:34:18;;;;;;;32.17;30.37;;;20.60;58.10;;;;;;4962928;28;20542;-70
2022/07/28 00:36:47;;;;;;;30.27;28.90;;;20.50;58.40;;;;;;4972710;28;20545;-70
2022/07/28 00:39:13;;;;;;;29.60;28.10;;;20.60;58.40;;;;;;4972098;28;20501;-71
2022/07/28 00:41:41;;;;;;;31.30;29.70;;;20.50;58.60;;;;;;4967233;28;20483;-70
2022/07/28 00:44:08;;;;;;;29.80;28.20;;;20.50;58.70;;;;;;4969049;28;20489;-70
2022/07/28 00:46:36;;;;;;;30.70;29.20;;;20.60;58.50;;;;;;4971769;28;20493;-71
2022/07/28 00:49:04;;;;;;;30.20;28.70;;;20.60;58.60;;;;;;4971279;28;20585;-70
2022/07/28 00:51:31;;;;;;;29.40;28.00;;;20.60;58.50;;;;;;4969217;28;20462;-68
2022/07/28 00:53:59;;;;;;;30.80;29.23;;;20.50;58.70;;;;;;4973092;28;20490;-68
2022/07/28 00:56:26;;;;;;;32.83;30.87;;;20.40;58.90;;;;;;4971763;28;20585;-68
2022/07/28 00:58:53;;;;;;;30.47;28.87;;;20.30;59.00;;;;;;4972874;28;20631;-68
2022/07/28 01:01:20;;;;;;;29.90;28.30;;;20.30;59.10;;;;;;4970011;28;20519;-68
2022/07/28 01:03:51;;;;;;;30.40;29.00;;;20.30;59.10;;;;;;4969847;28;20480;-68
2022/07/28 01:06:36;;;;;;;32.20;30.10;;;20.30;59.10;;;;;;4970781;28;20979;-68
2022/07/28 01:09:15;;;;;;;31.33;29.70;;;20.20;59.40;;;;;;4969868;28;20481;-68
2022/07/28 01:11:48;;;;;;;32.97;31.20;;;20.20;59.50;;;;;;4965625;28;20532;-68
2022/07/28 01:14:21;;;;;;;31.10;29.50;;;20.10;59.80;;;;;;4969535;28;20595;-67
2022/07/28 01:16:53;;;;;;;31.97;30.30;;;20.00;60.00;;;;;;4958985;28;20472;-70
2022/07/28 01:19:40;;;;;;;31.90;30.40;;;20.00;60.40;;;;;;4968773;28;20569;-70
2022/07/28 01:22:11;;;;;;;33.30;31.63;;;20.00;60.40;;;;;;4967427;28;20576;-70
2022/07/28 01:24:49;;;;;;;32.60;31.07;;;20.00;60.70;;;;;;4972972;28;20492;-70
2022/07/28 01:27:30;;;;;;;33.83;32.20;;;19.90;61.30;;;;;;4970238;28;20493;-70
2022/07/28 01:30:10;;;;;;;35.00;33.23;;;19.90;61.60;;;;;;4968850;28;20480;-70
2022/07/28 01:32:44;;;;;;;33.60;31.80;;;19.80;62.00;;;;;;4969826;28;20550;-70
2022/07/28 01:35:15;;;;;;;33.73;31.80;;;19.80;61.90;;;;;;4972819;28;20495;-70
2022/07/28 01:37:49;;;;;;;31.40;29.93;;;19.80;61.80;;;;;;4969743;28;20552;-70
2022/07/28 01:40:20;;;;;;;30.50;29.00;;;19.70;61.90;;;;;;4969924;28;21070;-70
2022/07/28 01:42:49;;;;;;;31.40;29.70;;;19.70;62.10;;;;;;4968974;28;20581;-70
2022/07/28 01:45:18;;;;;;;32.17;30.47;;;19.60;62.20;;;;;;4969334;28;20496;-72
2022/07/28 01:47:48;;;;;;;30.43;28.93;;;19.60;62.20;;;;;;4969257;28;20555;-70
2022/07/28 01:50:18;;;;;;;31.70;30.03;;;19.60;62.40;;;;;;4967035;28;20481;-71
2022/07/28 01:52:47;;;;;;;30.73;28.90;;;19.60;62.70;;;;;;4963708;28;20480;-70
2022/07/28 01:55:17;;;;;;;30.53;28.87;;;19.60;62.80;;;;;;4969899;28;20466;-70
2022/07/28 01:57:47;;;;;;;30.40;28.80;;;19.50;63.20;;;;;;4971416;28;20460;-70
2022/07/28 02:00:16;;;;;;;30.10;28.70;;;19.50;63.40;;;;;;4965762;28;20583;-70
2022/07/28 02:02:48;;;;;;;33.00;31.50;;;19.40;63.60;;;;;;4971219;28;20567;-70
2022/07/28 02:05:18;;;;;;;33.60;31.97;;;19.40;63.80;;;;;;4973082;28;20553;-70
2022/07/28 02:07:46;;;;;;;33.60;32.10;;;19.40;64.00;;;;;;4970097;28;20484;-70
2022/07/28 02:10:16;;;;;;;33.90;32.20;;;19.30;64.20;;;;;;4969610;28;20481;-70
2022/07/28 02:12:44;;;;;;;30.80;29.20;;;19.30;64.50;;;;;;4969924;28;20975;-70
2022/07/28 02:15:14;;;;;;;30.93;29.53;;;19.20;64.50;;;;;;4969702;28;20500;-71
2022/07/28 02:17:44;;;;;;;31.60;29.97;;;19.10;65.10;;;;;;4960240;28;20547;-70
2022/07/28 02:20:14;;;;;;;52.80;49.73;;;19.00;65.50;;;;;;4969503;28;20579;-70
2022/07/28 02:22:42;;;;;;;32.80;31.10;;;18.90;66.00;;;;;;4969315;28;20510;-70
2022/07/28 02:25:10;;;;;;;31.43;29.57;;;18.90;66.10;;;;;;4966379;28;20473;-70
2022/07/28 02:27:41;;;;;;;33.50;31.90;;;18.80;66.40;;;;;;4969178;28;21217;-70
2022/07/28 02:30:11;;;;;;;38.87;36.77;;;18.80;66.40;;;;;;4970792;28;20566;-70
2022/07/28 02:32:48;;;;;;;32.00;30.40;;;18.80;66.30;;;;;;4970298;28;20494;-70
2022/07/28 02:35:23;;;;;;;32.90;31.30;;;18.80;66.40;;;;;;4969758;28;20463;-70
2022/07/28 02:37:54;;;;;;;32.10;30.53;;;18.80;66.40;;;;;;4969598;28;20462;-70
2022/07/28 02:40:22;;;;;;;45.90;43.80;;;18.80;66.40;;;;;;4973861;28;20486;-70
2022/07/28 02:42:53;;;;;;;32.80;31.10;;;18.80;66.70;;;;;;4969496;28;20483;-70
2022/07/28 02:45:25;;;;;;;37.60;35.70;;;18.70;66.70;;;;;;4971702;28;20515;-70
2022/07/28 02:47:56;;;;;;;33.13;31.57;;;18.70;66.80;;;;;;4970118;28;20471;-70
2022/07/28 02:50:27;;;;;;;37.83;35.93;;;18.70;66.90;;;;;;4968503;28;20487;-70
2022/07/28 02:52:58;;;;;;;33.97;32.27;;;18.70;66.80;;;;;;4967217;28;20478;-70
2022/07/28 02:55:26;;;;;;;33.50;32.00;;;18.60;66.80;;;;;;4970585;28;20459;-70
2022/07/28 02:57:54;;;;;;;33.47;31.97;;;18.60;66.70;;;;;;4971222;28;20503;-70
2022/07/28 03:00:22;;;;;;;31.57;29.97;;;18.60;66.60;;;;;;4969530;28;21004;-70
2022/07/28 03:02:49;;;;;;;60.67;57.93;;;18.60;66.60;;;;;;4963701;28;20574;-70
2022/07/28 03:05:16;;;;;;;33.90;32.40;;;18.60;66.50;;;;;;4969233;28;20546;-70
2022/07/28 03:07:45;;;;;;;34.27;32.57;;;18.60;66.50;;;;;;4971101;28;20490;-70
2022/07/28 03:10:20;;;;;;;43.37;41.23;;;18.60;66.50;;;;;;4966689;28;20561;-70
2022/07/28 03:12:46;;;;;;;32.10;30.70;;;18.60;66.80;;;;;;4968406;28;20562;-70
2022/07/28 03:15:14;;;;;;;38.03;36.33;;;18.50;66.80;;;;;;4969861;28;21005;-70
2022/07/28 03:17:41;;;;;;;31.27;29.60;;;18.50;67.00;;;;;;4961986;28;20945;-70
2022/07/28 03:20:09;;;;;;;44.33;42.13;;;18.60;66.50;;;;;;4971455;28;20598;-70
2022/07/28 03:22:36;;;;;;;31.27;29.70;;;18.60;66.30;;;;;;4967325;28;20478;-70
2022/07/28 03:25:08;;;;;;;35.23;33.60;;;18.50;66.30;;;;;;4968525;28;20488;-70
2022/07/28 03:27:39;;;;;;;41.93;40.07;;;18.60;66.40;;;;;;4970011;28;20559;-70
2022/07/28 03:30:08;;;;;;;39.90;37.87;;;18.50;66.50;;;;;;4969377;28;20587;-70
2022/07/28 03:32:40;;;;;;;32.27;30.67;;;18.50;66.60;;;;;;4967535;28;20455;-70
2022/07/28 03:35:08;;;;;;;31.47;29.87;;;18.50;66.40;;;;;;4966392;28;20496;-70
2022/07/28 03:37:40;;;;;;;34.20;32.40;;;18.50;66.50;;;;;;4968960;28;21308;-69
2022/07/28 03:40:10;;;;;;;33.97;32.30;;;18.50;66.20;;;;;;4969096;28;20482;-72
2022/07/28 03:42:38;;;;;;;35.47;33.77;;;18.50;66.10;;;;;;4966162;28;20565;-70
2022/07/28 03:45:06;;;;;;;34.73;33.00;;;18.50;65.80;;;;;;4968949;28;20459;-70
2022/07/28 03:47:33;;;;;;;35.07;33.27;;;18.50;65.70;;;;;;4966933;28;20483;-70
2022/07/28 03:50:00;;;;;;;36.47;34.80;;;18.50;65.90;;;;;;4967666;28;20609;-70
2022/07/28 03:52:27;;;;;;;31.47;29.93;;;18.50;66.10;;;;;;4965355;28;20463;-71
2022/07/28 03:54:54;;;;;;;47.07;44.63;;;18.50;66.00;;;;;;4967099;28;20497;-71
2022/07/28 03:57:23;;;;;;;34.50;32.90;;;18.50;65.70;;;;;;4963916;28;21040;-70
2022/07/28 03:59:49;;;;;;;38.90;37.03;;;18.50;65.10;;;;;;4966362;28;20602;-70
2022/07/28 04:02:16;;;;;;;31.93;30.33;;;18.50;65.20;;;;;;4968140;28;20482;-70
2022/07/28 04:04:43;;;;;;;48.23;45.90;;;18.40;65.40;;;;;;4968815;28;21000;-72
2022/07/28 04:07:10;;;;;;;45.33;43.20;;;18.50;65.20;;;;;;4969298;28;20550;-70
2022/07/28 04:09:37;;;;;;;41.60;39.67;;;18.40;65.30;;;;;;4963542;28;20479;-71
2022/07/28 04:12:04;;;;;;;53.63;51.00;;;18.40;65.30;;;;;;4964493;28;20475;-70
2022/07/28 04:14:33;;;;;;;40.50;38.30;;;18.50;65.10;;;;;;4968275;28;21123;-70
2022/07/28 04:17:00;;;;;;;52.87;50.47;;;18.60;65.00;;;;;;4969468;28;20549;-70
2022/07/28 04:19:27;;;;;;;31.90;30.50;;;18.60;65.00;;;;;;4966577;28;20497;-70
2022/07/28 04:21:54;;;;;;;32.63;30.93;;;18.60;64.70;;;;;;4967607;28;20566;-70
2022/07/28 04:24:21;;;;;;;46.57;44.20;;;18.60;64.80;;;;;;4966024;28;20989;-68
2022/07/28 04:26:48;;;;;;;32.63;31.03;;;18.60;64.70;;;;;;4969192;28;20522;-68
2022/07/28 04:29:15;;;;;;;38.33;36.37;;;18.70;64.80;;;;;;4967455;28;20577;-68
2022/07/28 04:31:43;;;;;;;32.50;30.50;;;18.90;64.00;;;;;;4967336;28;20551;-68
2022/07/28 04:34:10;;;;;;;46.33;44.23;;;18.80;64.10;;;;;;4966098;28;21345;-68
2022/07/28 04:36:42;;;;;;;36.07;34.13;;;18.80;63.90;;;;;;4962382;28;20547;-68
2022/07/28 04:39:09;;;;;;;40.73;38.67;;;19.00;63.50;;;;;;4970670;28;20490;-68
2022/07/28 04:41:37;;;;;;;40.57;38.03;;;18.90;63.70;;;;;;4971889;28;20463;-68
2022/07/28 04:44:04;;;;;;;37.63;35.67;;;18.80;63.80;;;;;;4968837;28;20879;-70
2022/07/28 04:46:31;;;;;;;41.43;39.33;;;18.80;64.10;;;;;;4970069;28;21280;-71
2022/07/28 04:48:59;;;;;;;52.37;49.73;;;18.80;64.20;;;;;;4969346;28;20605;-71
2022/07/28 04:51:26;;;;;;;40.73;38.63;;;18.90;63.80;;;;;;4968129;28;20463;-73
2022/07/28 04:53:53;;;;;;;32.47;30.87;;;18.80;64.00;;;;;;4969040;28;20553;-70
2022/07/28 04:56:20;;;;;;;32.07;30.37;;;18.90;63.80;;;;;;4972977;28;20592;-70
2022/07/28 04:58:47;;;;;;;41.47;39.03;;;18.90;63.70;;;;;;4972171;28;20585;-70
2022/07/28 05:01:14;;;;;;;33.90;32.20;;;18.90;63.90;;;;;;4969406;28;20545;-70
2022/07/28 05:03:41;;;;;;;34.60;32.60;;;18.90;64.00;;;;;;4971134;28;21066;-69
2022/07/28 05:06:09;;;;;;;38.97;37.17;;;18.90;64.20;;;;;;4972742;28;20570;-69
2022/07/28 05:08:36;;;;;;;34.27;32.50;;;19.10;63.60;;;;;;4968336;28;20872;-68
2022/07/28 05:11:04;;;;;;;30.60;29.10;;;19.20;63.40;;;;;;4968091;28;20468;-68
2022/07/28 05:13:31;;;;;;;45.63;43.27;;;19.20;63.80;;;;;;4970520;28;20463;-71
2022/07/28 05:15:58;;;;;;;39.07;37.27;;;19.20;63.70;;;;;;4972459;28;20522;-71
2022/07/28 05:18:25;;;;;;;38.70;36.73;;;19.30;63.70;;;;;;4969540;28;21029;-70
2022/07/28 05:20:51;;;;;;;45.50;43.20;;;19.30;63.70;;;;;;4968666;28;20603;-71
2022/07/28 05:23:20;;;;;;;31.73;30.20;;;19.50;63.30;;;;;;4972233;28;20485;-72
2022/07/28 05:25:47;;;;;;;34.33;32.63;;;19.60;63.10;;;;;;4968098;28;20464;-75
2022/07/28 05:28:13;;;;;;;32.93;31.33;;;19.80;62.60;;;;;;4972216;28;20547;-74
2022/07/28 05:30:40;;;;;;;45.70;43.30;;;19.90;62.10;;;;;;4968861;28;20482;-70
2022/07/28 05:33:07;;;;;;;52.47;49.50;;;19.90;62.20;;;;;;4971334;28;20933;-71
2022/07/28 05:35:34;;;;;;;38.47;36.77;;;19.90;62.30;;;;;;4970144;28;20545;-70
2022/07/28 05:38:01;;;;;;;31.40;29.80;;;19.90;62.20;;;;;;4970507;28;21260;-70
2022/07/28 05:40:30;;;;;;;38.43;36.00;;;19.90;62.20;;;;;;4967430;28;20528;-70
2022/07/28 05:43:01;;;;;;;37.63;35.60;;;20.00;62.20;;;;;;4969679;28;20497;-70
2022/07/28 05:45:28;;;;;;;49.03;46.40;;;19.90;62.40;;;;;;4974673;28;20479;-69
2022/07/28 05:47:55;;;;;;;44.00;41.90;;;20.00;62.40;;;;;;4970325;28;20544;-73
2022/07/28 05:50:24;;;;;;;44.43;42.23;;;19.90;62.50;;;;;;4966438;28;20487;-71
2022/07/28 05:52:51;;;;;;;34.07;32.37;;;19.90;62.80;;;;;;4969890;28;20915;-68
2022/07/28 05:55:18;;;;;;;42.23;40.20;;;19.90;62.80;;;;;;4970834;28;20501;-68
2022/07/28 05:57:47;;;;;;;32.00;30.50;;;19.90;62.80;;;;;;4966134;28;20466;-68
2022/07/28 06:00:16;;;;;;;39.57;37.30;;;19.90;63.30;;;;;;4968478;28;20481;-68
2022/07/28 06:02:45;;;;;;;37.20;35.00;;;20.00;63.40;;;;;;4970505;28;20572;-68
2022/07/28 06:05:13;;;;;;;38.33;36.07;;;20.20;62.60;;;;;;4969041;28;20466;-68
2022/07/28 06:07:41;;;;;;;43.23;40.63;;;20.20;62.60;;;;;;4969554;28;20480;-68
2022/07/28 06:10:09;;;;;;;41.13;38.93;;;20.30;62.40;;;;;;4968894;28;20489;-68
2022/07/28 06:12:40;;;;;;;34.03;32.30;;;20.30;62.60;;;;;;4969871;28;21400;-70
2022/07/28 06:15:13;;;;;;;33.57;31.83;;;20.40;62.40;;;;;;4969775;28;20467;-70
2022/07/28 06:17:40;;;;;;;33.73;32.00;;;20.40;62.30;;;;;;4967917;28;20960;-68
2022/07/28 06:20:08;;;;;;;41.47;39.27;;;20.60;62.20;;;;;;4968994;28;20571;-68
2022/07/28 06:22:42;;;;;;;33.00;31.07;;;20.70;61.90;;;;;;4965306;28;20483;-69
2022/07/28 06:25:13;;;;;;;47.10;44.90;;;20.70;61.90;;;;;;4968999;28;20470;-69
2022/07/28 06:27:51;;;;;;;35.83;33.87;;;20.60;62.30;;;;;;4969156;28;20464;-69
2022/07/28 06:30:20;;;;;;;49.90;47.20;;;20.70;62.10;;;;;;4975973;28;20499;-68
2022/07/28 06:32:48;;;;;;;39.03;36.93;;;20.60;62.50;;;;;;4968128;28;20497;-69
2022/07/28 06:35:16;;;;;;;31.53;30.03;;;20.70;62.30;;;;;;4969281;28;20481;-69
2022/07/28 06:37:44;;;;;;;44.43;42.37;;;20.70;62.50;;;;;;4969701;28;20615;-70
2022/07/28 06:40:12;;;;;;;42.60;40.57;;;20.60;62.80;;;;;;4970181;28;20548;-69
2022/07/28 06:42:39;;;;;;;41.43;39.43;;;20.70;62.90;;;;;;4974130;28;20572;-70
2022/07/28 06:45:07;;;;;;;34.47;32.67;;;20.90;62.50;;;;;;4971519;28;21007;-69
2022/07/28 06:47:36;;;;;;;44.67;42.60;;;20.70;62.90;;;;;;4970044;28;20960;-69
2022/07/28 06:50:04;;;;;;;37.73;35.60;;;20.70;63.20;;;;;;4969310;28;20490;-69
2022/07/28 06:52:32;;;;;;;35.70;33.17;;;20.80;63.10;;;;;;4969878;28;20471;-69
2022/07/28 06:54:59;;;;;;;33.30;31.40;;;20.90;63.10;;;;;;4971769;28;20495;-69
2022/07/28 06:57:27;;;;;;;38.27;36.43;;;21.00;63.20;;;;;;4970001;28;21078;-69
2022/07/28 06:59:55;;;;;;;40.40;38.30;;;21.10;63.10;;;;;;4971212;28;20508;-70
2022/07/28 07:02:22;;;;;;;37.23;34.97;;;21.10;63.10;;;;;;4969295;28;20543;-70
2022/07/28 07:04:51;;;;;;;32.27;30.57;;;21.10;63.30;;;;;;4969961;28;20463;-70
2022/07/28 07:07:18;;;;;;;36.20;34.30;;;21.30;62.60;;;;;;4970987;28;21011;-70
2022/07/28 07:09:45;;;;;;;37.90;36.00;;;21.40;62.60;;;;;;4970986;28;21115;-69
2022/07/28 07:12:12;;;;;;;39.93;38.03;;;21.40;62.80;;;;;;4967428;28;20826;-72
2022/07/28 07:14:39;;;;;;;45.67;43.23;;;21.40;63.00;;;;;;4970473;28;20495;-69
2022/07/28 07:17:06;;;;;;;37.40;35.30;;;21.40;63.10;;;;;;4970143;28;20551;-69
2022/07/28 07:19:33;;;;;;;42.40;39.80;;;21.40;63.60;;;;;;4968859;28;20574;-69
2022/07/28 07:22:01;;;;;;;37.53;35.30;;;21.20;64.10;;;;;;4971493;28;20470;-69
2022/07/28 07:24:28;;;;;;;39.00;36.87;;;21.30;64.10;;;;;;4968875;28;20600;-72
2022/07/28 07:26:55;;;;;;;37.37;35.27;;;21.30;64.40;;;;;;4970296;28;20476;-71
2022/07/28 07:29:24;;;;;;;45.30;43.13;;;21.50;63.90;;;;;;4969586;28;20566;-71
2022/07/28 07:31:51;;;;;;;44.53;42.20;;;21.70;63.40;;;;;;4970546;28;20465;-71
2022/07/28 07:34:18;;;;;;;43.70;41.13;;;21.70;63.60;;;;;;4967114;28;20540;-69
2022/07/28 07:36:44;;;;;;;42.80;40.70;;;21.70;63.70;;;;;;4970171;28;21287;-69
2022/07/28 07:39:13;;;;;;;42.37;40.20;;;22.00;63.20;;;;;;4963082;28;20615;-71
2022/07/28 07:41:40;;;;;;;40.57;38.57;;;22.00;63.10;;;;;;4967721;28;21183;-67
2022/07/28 07:44:09;;;;;;;40.13;38.13;;;22.00;63.20;;;;;;4972169;28;20887;-73
2022/07/28 07:46:37;;;;;;;54.07;51.13;;;22.10;63.50;;;;;;4968568;28;20457;-72
2022/07/28 07:49:04;;;;;;;46.37;44.07;;;22.10;63.50;;;;;;4967149;28;20610;-73
2022/07/28 07:51:31;;;;;;;41.30;38.90;;;22.20;63.30;;;;;;4969890;28;20465;-69
2022/07/28 07:53:58;;;;;;;40.33;38.33;;;22.20;63.50;;;;;;4969587;28;20483;-72
2022/07/28 07:56:26;;;;;;;41.63;39.43;;;22.20;63.50;;;;;;4968902;28;20992;-71
2022/07/28 07:58:53;;;;;;;35.50;33.33;;;22.20;63.50;;;;;;4969405;28;21232;-70
2022/07/28 08:01:21;;;;;;;37.77;35.67;;;22.20;63.70;;;;;;4967596;28;20464;-71
2022/07/28 08:03:49;;;;;;;45.10;42.70;;;22.30;63.50;;;;;;4969763;28;20547;-70
2022/07/28 08:06:16;;;;;;;52.53;49.87;;;22.30;63.50;;;;;;4967562;28;20470;-69
2022/07/28 08:08:43;;;;;;;45.50;42.60;;;22.30;63.70;;;;;;4967548;28;20560;-72
2022/07/28 08:11:11;;;;;;;55.10;52.30;;;22.60;63.00;;;;;;4967777;28;20495;-71
2022/07/28 08:13:39;;;;;;;50.20;47.60;;;22.70;64.60;;;;;;4971491;28;20451;-71
2022/07/28 08:16:07;;;;;;;55.57;52.73;;;22.90;62.80;;;;;;4973799;28;20485;-71
2022/07/28 08:18:34;;;;;;;48.73;45.93;;;23.00;62.00;;;;;;4974253;28;20519;-71
2022/07/28 08:21:04;;;;;;;52.17;49.40;;;23.00;62.20;;;;;;4969397;28;20509;-69
2022/07/28 08:23:33;;;;;;;53.17;50.33;;;23.00;62.20;;;;;;4971717;28;20489;-69
2022/07/28 08:26:01;;;;;;;42.93;40.77;;;23.00;62.30;;;;;;4974411;28;20555;-71
2022/07/28 08:28:28;;;;;;;43.47;41.17;;;23.00;62.30;;;;;;4972711;28;20466;-73
2022/07/28 08:30:56;;;;;;;56.27;53.20;;;22.80;63.10;;;;;;4971632;28;20508;-74
2022/07/28 08:33:23;;;;;;;45.87;43.67;;;22.70;63.30;;;;;;4972583;28;20485;-71
2022/07/28 08:35:50;;;;;;;50.37;47.67;;;22.80;63.30;;;;;;4970887;28;20886;-72
2022/07/28 08:38:18;;;;;;;47.23;44.73;;;23.10;62.70;;;;;;4973594;28;20467;-72
2022/07/28 08:40:48;;;;;;;39.63;37.63;;;23.10;62.80;;;;;;4972144;28;21124;-70
2022/07/28 08:43:23;;;;;;;49.80;47.00;;;23.30;62.50;;;;;;4974177;28;20562;-71
2022/07/28 08:45:52;;;;;;;43.60;41.20;;;23.30;62.40;;;;;;4972190;28;20476;-71
2022/07/28 08:48:21;;;;;;;51.60;48.70;;;23.50;62.00;;;;;;4973581;28;20478;-69
2022/07/28 08:50:51;;;;;;;43.37;41.07;;;23.60;62.00;;;;;;4966578;28;20467;-72
2022/07/28 08:53:19;;;;;;;49.93;47.40;;;23.60;62.00;;;;;;4967734;28;20462;-73
2022/07/28 08:55:48;;;;;;;55.63;52.53;;;23.70;61.80;;;;;;4968019;28;20450;-72
2022/07/28 08:58:16;;;;;;;46.83;44.30;;;23.70;61.80;;;;;;4969320;28;20463;-73
2022/07/28 09:00:44;;;;;;;48.50;45.60;;;23.70;62.20;;;;;;4960580;28;20639;-72
2022/07/28 09:03:12;;;;;;;55.77;52.37;;;23.70;62.50;;;;;;4968198;28;20484;-71
2022/07/28 09:05:42;;;;;;;41.07;39.07;;;23.90;61.60;;;;;;4965067;28;20464;-71
2022/07/28 09:08:11;;;;;;;47.93;45.47;;;24.00;61.40;;;;;;4969997;28;20467;-72
2022/07/28 09:10:38;;;;;;;53.33;50.53;;;24.30;61.10;;;;;;4972469;28;20483;-71
2022/07/28 09:13:05;;;;;;;50.67;47.90;;;24.30;60.90;;;;;;4970700;28;20470;-72
2022/07/28 09:15:33;;;;;;;42.50;40.13;;;24.30;61.00;;;;;;4969564;28;20492;-70
2022/07/28 09:18:01;;;;;;;48.50;45.90;;;24.40;61.30;;;;;;4966382;28;20530;-73
2022/07/28 09:20:29;;;;;;;56.70;53.80;;;24.40;61.30;;;;;;4970654;28;20483;-72
2022/07/28 09:23:00;;;;;;;43.63;41.10;;;24.40;61.00;;;;;;4967227;28;20469;-74
2022/07/28 09:25:28;;;;;;;50.30;47.50;;;24.30;61.40;;;;;;4971731;28;20490;-70
2022/07/28 09:27:56;;;;;;;48.13;45.70;;;24.30;61.40;;;;;;4969623;28;20986;-74
2022/07/28 09:30:30;;;;;;;57.10;54.17;;;24.60;61.20;;;;;;4973756;28;20479;-71
2022/07/28 09:33:18;;;;;;;59.37;56.27;;;24.80;60.40;;;;;;4969766;28;20641;-72
2022/07/28 09:35:50;;;;;;;48.03;45.43;;;24.70;60.90;;;;;;4970489;28;20468;-72
2022/07/28 09:38:21;;;;;;;45.33;42.90;;;24.80;60.90;;;;;;4970778;28;20530;-71
2022/07/28 09:40:58;;;;;;;61.97;58.83;;;25.20;59.80;;;;;;4967940;28;20460;-71
2022/07/28 09:43:36;;;;;;;62.77;59.47;;;25.30;59.60;;;;;;4967405;28;20820;-72
2022/07/28 09:46:04;;;;;;;61.90;58.90;;;25.40;59.10;;;;;;4965609;28;20462;-72
2022/07/28 09:48:32;;;;;;;47.80;45.07;;;25.50;59.00;;;;;;4964648;28;20571;-71
2022/07/28 09:51:10;;;;;;;60.70;57.70;;;25.50;59.00;;;;;;4972324;28;20896;-72
2022/07/28 09:53:39;;;;;;;56.73;53.83;;;25.50;58.90;;;;;;4971583;28;20497;-73
2022/07/28 09:56:07;;;;;;;41.07;38.77;;;25.50;59.10;;;;;;4971063;28;20492;-72
2022/07/28 09:58:34;;;;;;;44.07;41.80;;;25.40;59.10;;;;;;4972152;28;20571;-72
2022/07/28 10:01:05;;;;;;;52.57;49.93;;;25.50;59.00;;;;;;4971778;28;20524;-72
2022/07/28 10:03:32;;;;;;;56.77;53.90;;;25.70;58.30;;;;;;4970325;28;20477;-72
2022/07/28 10:06:03;;;;;;;39.20;37.20;;;25.80;58.20;;;;;;4971763;28;20557;-72
2022/07/28 10:08:42;;;;;;;40.70;38.50;;;25.80;57.80;;;;;;4971256;28;20826;-73
2022/07/28 10:11:11;;;;;;;44.80;42.60;;;25.90;58.10;;;;;;4971233;28;20547;-73
2022/07/28 10:13:52;;;;;;;56.57;53.67;;;25.90;57.80;;;;;;4970865;28;20557;-71
2022/07/28 10:16:20;;;;;;;56.37;53.33;;;25.90;58.10;;;;;;4971490;28;20493;-71
2022/07/28 10:18:47;;;;;;;51.33;48.73;;;26.10;57.70;;;;;;4971093;28;20480;-72
2022/07/28 10:21:16;;;;;;;54.30;51.50;;;26.00;57.80;;;;;;4970809;28;20460;-72
2022/07/28 10:23:48;;;;;;;39.10;37.10;;;26.20;57.30;;;;;;4958080;28;20478;-72
2022/07/28 10:26:16;;;;;;;42.10;39.90;;;26.40;57.10;;;;;;4971133;28;20481;-71
2022/07/28 10:28:47;;;;;;;42.03;39.83;;;26.50;56.90;;;;;;4972181;28;20676;-72
2022/07/28 10:31:22;;;;;;;48.43;45.50;;;26.60;56.40;;;;;;4973061;28;20530;-72
2022/07/28 10:33:51;;;;;;;41.40;38.93;;;26.60;56.40;;;;;;4968912;28;20483;-72
2022/07/28 10:36:24;;;;;;;51.53;48.53;;;26.70;56.70;;;;;;4966851;28;20518;-72
2022/07/28 10:38:58;;;;;;;46.20;43.80;;;27.00;55.90;;;;;;4971727;28;21030;-72
2022/07/28 10:41:28;;;;;;;40.13;37.90;;;27.00;55.90;;;;;;4969993;28;20455;-72
2022/07/28 10:43:56;;;;;;;59.10;56.40;;;27.10;55.20;;;;;;4960956;28;20589;-72
2022/07/28 10:46:25;;;;;;;58.83;55.83;;;27.20;54.90;;;;;;4970752;28;20566;-71
2022/07/28 10:48:52;;;;;;;50.20;47.07;;;27.40;54.80;;;;;;4969331;28;20577;-70
2022/07/28 10:51:21;;;;;;;59.17;55.90;;;27.40;55.20;;;;;;4970045;28;20551;-70
2022/07/28 10:53:56;;;;;;;43.27;40.90;;;27.80;54.70;;;;;;4969669;28;20491;-70
2022/07/28 10:56:29;;;;;;;44.50;42.10;;;28.10;53.40;;;;;;4969909;28;20487;-70
2022/07/28 10:59:03;;;;;;;50.30;47.70;;;28.20;53.00;;;;;;4970600;28;20565;-68
2022/07/28 11:01:38;;;;;;;59.40;56.30;;;28.50;52.50;;;;;;4969880;28;20558;-67
2022/07/28 11:04:06;;;;;;;41.30;38.23;;;28.80;51.80;;;;;;4975930;28;21031;-68
2022/07/28 11:06:46;;;;;;;63.87;60.67;;;28.90;51.90;;;;;;4969354;28;20541;-70
2022/07/28 11:09:24;;;;;;;57.47;54.47;;;28.90;51.50;;;;;;4971402;28;20868;-71
2022/07/28 11:11:53;;;;;;;50.40;47.73;;;29.00;51.60;;;;;;4969608;28;20565;-70
2022/07/28 11:14:32;;;;;;;55.80;52.90;;;29.20;50.90;;;;;;4969703;28;20452;-71
2022/07/28 11:17:18;;;;;;;58.63;55.63;;;29.40;49.90;;;;;;4963236;28;20466;-70
2022/07/28 11:19:56;;;;;;;53.30;50.50;;;29.40;50.30;;;;;;4970232;28;20485;-71
2022/07/28 11:22:31;;;;;;;43.50;41.30;;;29.30;50.10;;;;;;4970859;28;20455;-70
2022/07/28 11:25:20;;;;;;;54.87;51.97;;;29.40;50.40;;;;;;4969441;28;20490;-71
2022/07/28 11:28:04;;;;;;;40.07;37.77;;;29.50;49.70;;;;;;4965944;28;20487;-70
2022/07/28 11:30:54;;;;;;;40.83;38.70;;;29.60;49.50;;;;;;4971186;28;20478;-71
2022/07/28 11:33:23;;;;;;;48.87;46.23;;;29.90;49.30;;;;;;4968176;28;20981;-71
2022/07/28 11:35:58;;;;;;;41.93;39.73;;;30.10;49.00;;;;;;4971090;28;21280;-71
2022/07/28 11:38:25;;;;;;;43.63;41.30;;;30.30;48.20;;;;;;4969777;28;20464;-71
2022/07/28 11:40:56;;;;;;;40.33;38.33;;;30.50;48.20;;;;;;4971058;28;20454;-72
2022/07/28 11:43:37;;;;;;;49.77;47.40;;;30.80;47.40;;;;;;4968918;28;20460;-71
2022/07/28 11:46:36;;;;;;;61.67;58.17;;;31.10;46.30;;;;;;4970819;28;20493;-71
2022/07/28 11:49:30;;;;;;;51.13;47.50;;;31.50;45.40;;;;;;4960526;28;20502;-71
2022/07/28 11:52:15;;;;;;;58.80;54.90;;;31.60;45.40;;;;;;4970217;28;20993;-71
2022/07/28 11:54:43;;;;;;;45.30;42.77;;;31.70;45.40;;;;;;4969811;28;20551;-71
2022/07/28 11:57:11;;;;;;;41.43;39.33;;;31.50;45.20;;;;;;4962929;28;20494;-72
2022/07/28 11:59:50;;;;;;;46.43;43.80;;;31.50;45.00;;;;;;4969146;28;20502;-72
2022/07/28 12:02:22;;;;;;;43.17;40.87;;;31.60;44.90;;;;;;4968074;28;20516;-72
2022/07/28 12:05:08;;;;;;;62.30;59.07;;;31.90;44.60;;;;;;4969084;28;20822;-71
2022/07/28 12:07:38;;;;;;;40.67;38.53;;;32.10;44.20;;;;;;4970091;28;20466;-71
2022/07/28 12:10:33;;;;;;;38.63;36.83;;;32.30;43.60;;;;;;4968453;28;20581;-72
2022/07/28 12:13:06;;;;;;;45.33;43.13;;;31.60;43.40;;;;;;4945511;28;20586;-72
2022/07/28 12:15:33;;;;;;;60.47;56.97;;;31.60;43.80;;;;;;4958103;28;20828;-71
2022/07/28 12:18:01;;;;;;;43.00;40.50;;;31.90;43.60;;;;;;4972454;28;20490;-71
2022/07/28 12:20:31;;;;;;;65.60;61.60;;;32.20;43.00;;;;;;4970842;28;20493;-70
2022/07/28 12:23:01;;;;;;;58.33;55.27;;;32.30;42.30;;;;;;4968967;28;20949;-70
2022/07/28 12:25:29;;;;;;;51.77;49.27;;;32.50;41.90;;;;;;4969172;28;20993;-70
2022/07/28 12:27:57;;;;;;;46.70;44.40;;;32.40;41.00;;;;;;4969132;28;20941;-69
2022/07/28 12:30:27;;;;;;;66.83;63.20;;;32.30;41.90;;;;;;4970925;28;20490;-69
2022/07/28 12:32:55;;;;;;;42.00;39.87;;;32.20;41.90;;;;;;4969468;28;20559;-70
2022/07/28 12:35:24;;;;;;;53.80;51.30;;;31.70;43.00;;;;;;4969036;28;20517;-70
2022/07/28 12:37:51;;;;;;;40.93;38.93;;;31.90;42.70;;;;;;4970684;28;20550;-70
2022/07/28 12:40:20;;;;;;;52.67;50.20;;;31.90;42.70;;;;;;4969993;28;20558;-69
2022/07/28 12:42:53;;;;;;;43.97;41.77;;;32.10;42.40;;;;;;4970797;28;20550;-70